createdAt,value
2023-03-08T00:02:20.541Z,28.63
2023-03-08T00:08:07.879Z,28.73
2023-03-08T00:13:15.800Z,28.83
2023-03-08T00:18:26.994Z,28.95
2023-03-08T00:23:51.189Z,29.06
2023-03-08T00:28:55.408Z,29.19
2023-03-08T00:34:07.512Z,29.18
2023-03-08T00:39:14.832Z,29.21
2023-03-08T00:44:22.128Z,29.26
2023-03-08T00:49:29.399Z,29.28
2023-03-08T00:54:36.692Z,29.29
2023-03-08T00:59:43.838Z,29.28
2023-03-08T01:04:51.026Z,29.27
2023-03-08T01:09:58.207Z,29.28
2023-03-08T01:15:06.018Z,29.28
2023-03-08T01:20:13.238Z,29.29
2023-03-08T01:25:20.540Z,29.30
2023-03-08T01:30:27.696Z,29.30
2023-03-08T01:35:34.937Z,29.30
2023-03-08T01:40:42.127Z,29.17
2023-03-08T01:45:49.329Z,29.24
2023-03-08T01:50:56.631Z,29.30
2023-03-08T01:56:03.943Z,29.24
2023-03-08T02:01:11.432Z,29.30
2023-03-08T02:06:18.883Z,29.40
2023-03-08T02:11:26.225Z,29.43
2023-03-08T02:16:33.582Z,29.47
2023-03-08T02:21:40.826Z,29.56
2023-03-08T02:26:48.407Z,29.36
2023-03-08T02:32:00.259Z,29.27
2023-03-08T02:37:10.851Z,29.04
2023-03-08T02:42:18.183Z,29.21
2023-03-08T02:47:29.593Z,29.56
2023-03-08T02:53:39.955Z,29.65
2023-03-08T02:58:07.733Z,29.66
2023-03-08T03:03:28.761Z,29.66
2023-03-08T03:08:32.042Z,29.65
2023-03-08T03:13:42.509Z,29.59
2023-03-08T03:18:56.432Z,29.60
2023-03-08T03:24:12.695Z,29.58
2023-03-08T03:29:20.321Z,29.53
2023-03-08T03:34:34.339Z,29.52
2023-03-08T03:39:42.072Z,29.49
2023-03-08T03:44:51.533Z,29.47
2023-03-08T03:50:03.031Z,29.43
2023-03-08T03:55:49.452Z,29.42
2023-03-08T04:01:00.254Z,29.40
2023-03-08T04:06:14.965Z,29.42
2023-03-08T04:11:22.417Z,29.42
2023-03-08T04:16:36.201Z,29.40
2023-03-08T04:22:18.595Z,29.36
2023-03-08T04:28:01.732Z,29.34
2023-03-08T04:33:18.230Z,29.31
2023-03-08T04:38:25.851Z,29.29
2023-03-08T04:43:36.832Z,29.24
2023-03-08T04:48:59.379Z,29.25
2023-03-08T04:54:15.543Z,29.21
2023-03-08T04:59:22.974Z,29.25
2023-03-08T05:04:30.868Z,29.30
2023-03-08T05:09:38.554Z,29.30
2023-03-08T05:14:47.234Z,29.34
2023-03-08T05:19:55.222Z,29.40
2023-03-08T05:25:08.306Z,29.40
2023-03-08T05:30:15.738Z,29.43
2023-03-08T05:35:23.316Z,29.44
2023-03-08T05:40:35.377Z,29.44
2023-03-08T05:46:18.450Z,29.57
2023-03-08T05:51:27.162Z,29.65
2023-03-08T05:57:13.049Z,29.60
2023-03-08T06:01:46.634Z,29.63
2023-03-08T06:06:54.197Z,29.67
2023-03-08T06:12:17.455Z,29.66
2023-03-08T06:17:19.021Z,29.76
2023-03-08T06:22:34.988Z,29.73
2023-03-08T06:28:17.644Z,29.82
2023-03-08T06:33:36.234Z,29.84
2023-03-08T06:38:43.082Z,29.86
2023-03-08T06:43:50.647Z,29.83
2023-03-08T06:48:58.134Z,29.89
2023-03-08T06:54:05.494Z,29.85
2023-03-08T06:59:12.954Z,29.89
2023-03-08T07:04:20.489Z,29.79
2023-03-08T07:09:28.036Z,29.64
2023-03-08T07:14:35.293Z,29.59
2023-03-08T07:19:42.880Z,29.59
2023-03-08T07:25:09.393Z,29.59
2023-03-08T07:33:42.062Z,29.56
2023-03-08T07:35:41.891Z,29.64
2023-03-08T07:40:54.133Z,29.53
2023-03-08T07:46:20.332Z,29.66
2023-03-08T07:51:33.107Z,29.61
2023-03-08T07:56:40.772Z,29.59
2023-03-08T08:01:48.328Z,29.58
2023-03-08T08:06:55.664Z,29.66
2023-03-08T08:12:07.119Z,29.74
2023-03-08T08:17:14.645Z,29.73
2023-03-08T08:22:21.983Z,29.73
2023-03-08T08:27:29.445Z,29.89
2023-03-08T08:32:37.045Z,29.91
2023-03-08T08:37:44.376Z,29.95
2023-03-08T08:43:00.555Z,29.98
2023-03-08T08:48:04.098Z,29.98
2023-03-08T08:53:17.348Z,29.95
2023-03-08T08:58:31.066Z,29.82
2023-03-08T09:03:34.685Z,29.92
2023-03-08T09:08:44.962Z,30.15
2023-03-08T09:13:52.122Z,30.95
2023-03-08T09:18:59.593Z,30.80
2023-03-08T09:24:13.286Z,30.63
2023-03-08T09:29:20.945Z,30.46
2023-03-08T09:34:28.567Z,30.33
2023-03-08T09:39:36.195Z,30.37
2023-03-08T09:44:59.589Z,30.33
2023-03-08T09:50:06.969Z,30.29
2023-03-08T09:55:14.504Z,30.22
2023-03-08T10:00:29.077Z,30.16
2023-03-08T10:05:41.153Z,30.11
2023-03-08T10:10:48.570Z,30.08
2023-03-08T10:15:56.248Z,30.04
2023-03-08T10:21:03.654Z,30.02
2023-03-08T10:26:13.742Z,30.01
2023-03-08T10:31:21.330Z,30.05
2023-03-08T10:36:28.566Z,30.00
2023-03-08T10:41:37.899Z,30.00
2023-03-08T10:46:45.507Z,30.03
2023-03-08T10:51:52.845Z,30.24
2023-03-08T10:57:00.999Z,30.11
2023-03-08T11:02:08.321Z,30.08
2023-03-08T11:07:15.637Z,30.08
2023-03-08T11:12:23.097Z,30.08
2023-03-08T11:17:30.578Z,30.10
2023-03-08T11:22:38.098Z,30.11
2023-03-08T11:27:45.430Z,30.21
2023-03-08T11:32:53.286Z,30.30
2023-03-08T11:38:00.333Z,30.28
2023-03-08T11:43:10.826Z,30.21
2023-03-08T11:48:18.220Z,30.24
2023-03-08T11:53:25.616Z,30.18
2023-03-08T11:58:32.888Z,30.26
2023-03-08T12:03:40.660Z,30.30
2023-03-08T12:08:47.883Z,30.40
2023-03-08T12:13:55.142Z,30.35
2023-03-08T12:19:02.785Z,30.27
2023-03-08T12:24:10.233Z,30.17
2023-03-08T12:29:23.601Z,30.14
2023-03-08T12:34:30.319Z,30.13
2023-03-08T12:39:37.885Z,30.07
2023-03-08T12:44:45.191Z,30.06
2023-03-08T12:49:52.763Z,30.07
2023-03-08T12:54:59.881Z,30.14
2023-03-08T13:00:11.008Z,30.14
2023-03-08T13:05:21.906Z,30.05
2023-03-08T13:10:29.281Z,30.02
2023-03-08T13:15:36.679Z,30.11
2023-03-08T13:20:44.012Z,30.27
2023-03-08T13:25:51.804Z,30.15
2023-03-08T13:30:58.987Z,30.18
2023-03-08T13:36:06.422Z,30.24
2023-03-08T13:41:13.632Z,30.35
2023-03-08T13:46:21.110Z,30.45
2023-03-08T13:51:28.480Z,30.53
2023-03-08T13:56:36.032Z,30.55
2023-03-08T14:01:43.325Z,30.56
2023-03-08T14:06:50.705Z,30.59
2023-03-08T14:11:57.954Z,30.74
2023-03-08T14:17:05.296Z,30.88
2023-03-08T14:22:12.784Z,30.95
2023-03-08T14:27:19.946Z,30.98
2023-03-08T14:32:27.259Z,31.13
2023-03-08T14:37:37.727Z,30.98
2023-03-08T14:42:45.567Z,30.92
2023-03-08T14:47:52.823Z,30.98
2023-03-08T14:53:00.297Z,31.04
2023-03-08T14:58:07.840Z,30.95
2023-03-08T15:03:30.214Z,31.08
2023-03-08T15:08:37.569Z,31.21
2023-03-08T15:13:45.427Z,31.26
2023-03-08T15:18:56.386Z,31.23
2023-03-08T15:24:03.887Z,31.27
2023-03-08T15:29:11.117Z,31.35
2023-03-08T15:34:18.486Z,31.37
2023-03-08T15:39:25.889Z,31.39
2023-03-08T15:44:33.292Z,31.39
2023-03-08T15:49:40.743Z,31.34
2023-03-08T15:54:48.360Z,31.31
2023-03-08T15:59:55.590Z,31.33
2023-03-08T16:05:02.944Z,31.38
2023-03-08T16:10:11.068Z,31.27
2023-03-08T16:15:18.044Z,31.21
2023-03-08T16:20:25.463Z,31.13
2023-03-08T16:25:32.763Z,31.19
2023-03-08T16:30:40.201Z,31.17
2023-03-08T16:35:47.623Z,31.19
2023-03-08T16:41:06.211Z,31.24
2023-03-08T16:46:02.515Z,31.32
2023-03-08T16:51:09.922Z,31.32
2023-03-08T16:56:17.372Z,31.40
2023-03-08T17:01:24.782Z,31.43
2023-03-08T17:06:32.319Z,31.40
2023-03-08T17:11:39.676Z,31.43
2023-03-08T17:16:46.969Z,31.59
2023-03-08T17:21:54.270Z,32.19
2023-03-08T17:27:01.456Z,32.30
2023-03-08T17:32:08.693Z,31.98
2023-03-08T17:37:15.900Z,31.82
2023-03-08T17:42:23.358Z,31.67
2023-03-08T17:47:30.950Z,31.56
2023-03-08T17:52:38.257Z,31.36
2023-03-08T17:57:45.486Z,31.22
2023-03-08T18:02:53.035Z,31.07
2023-03-08T18:08:00.393Z,31.04
2023-03-08T18:13:07.646Z,30.97
2023-03-08T18:18:15.532Z,31.75
2023-03-08T18:23:22.706Z,32.40
2023-03-08T18:28:30.094Z,32.62
2023-03-08T18:33:37.647Z,32.75
2023-03-08T18:38:45.241Z,32.62
2023-03-08T18:43:52.779Z,32.41
2023-03-08T18:49:00.166Z,32.29
2023-03-08T18:54:07.395Z,32.30
2023-03-08T18:59:14.910Z,32.19
2023-03-08T19:04:22.619Z,32.29
2023-03-08T19:09:30.203Z,32.10
2023-03-08T19:14:37.664Z,32.11
2023-03-08T19:19:45.024Z,31.86
2023-03-08T19:24:52.746Z,31.75
2023-03-08T19:30:00.299Z,31.57
2023-03-08T19:35:07.865Z,31.60
2023-03-08T19:40:15.607Z,32.19
2023-03-08T19:45:23.239Z,32.17
2023-03-08T19:50:30.822Z,32.40
2023-03-08T19:55:38.541Z,32.55
2023-03-08T20:00:46.012Z,31.99
2023-03-08T20:05:53.615Z,31.84
2023-03-08T20:11:01.407Z,31.75
2023-03-08T20:16:09.330Z,32.07
2023-03-08T20:21:17.159Z,32.09
2023-03-08T20:26:24.942Z,31.92
2023-03-08T20:31:32.832Z,32.11
2023-03-08T20:36:40.488Z,31.97
2023-03-08T20:41:47.987Z,31.75
2023-03-08T20:46:55.534Z,31.71
2023-03-08T20:52:03.731Z,31.89
2023-03-08T20:57:11.138Z,31.98
2023-03-08T21:02:18.528Z,32.11
2023-03-08T21:07:25.758Z,31.93
2023-03-08T21:12:33.173Z,31.78
2023-03-08T21:17:40.537Z,32.11
2023-03-08T21:22:47.769Z,32.11
2023-03-08T21:27:55.386Z,32.14
2023-03-08T21:33:02.906Z,31.94
2023-03-08T21:38:10.312Z,32.04
2023-03-08T21:43:18.022Z,32.04
2023-03-08T21:48:25.314Z,31.73
2023-03-08T21:53:32.542Z,32.07
2023-03-08T21:58:39.765Z,31.69
2023-03-08T22:03:46.996Z,31.88
2023-03-08T22:08:54.242Z,32.00
2023-03-08T22:14:01.442Z,32.11
2023-03-08T22:19:08.637Z,32.07
2023-03-08T22:24:15.807Z,31.99
2023-03-08T22:29:22.999Z,31.75
2023-03-08T22:34:30.272Z,31.68
2023-03-08T22:39:37.350Z,31.69
2023-03-08T22:44:44.578Z,31.49
2023-03-08T22:49:51.759Z,31.91
2023-03-08T22:54:58.905Z,32.27
2023-03-08T23:00:10.778Z,31.82
2023-03-08T23:05:15.745Z,31.54
2023-03-08T23:10:23.188Z,31.38
2023-03-08T23:15:31.456Z,31.29
2023-03-08T23:20:39.071Z,31.14
2023-03-08T23:25:49.694Z,31.04
2023-03-08T23:30:56.581Z,30.95
2023-03-08T23:36:04.671Z,30.91
2023-03-08T23:41:11.962Z,30.89
2023-03-08T23:46:19.414Z,30.85
2023-03-08T23:51:26.772Z,30.72
2023-03-08T23:56:34.209Z,30.66
